Prevelis — SYDL — position and weather

sailwx.info

Track history (hours):
 
Tides and Currents Weather Stations Pressure Air Temp Water Temp Dewpoint Dewpoint Depression Visibility Wind Speed Wind Dir Waves Ship Positions

Prevelis

Last reported at 2016-Aug-26 17:28 UTC. Time now 2016-Aug-27 02:57 UTC.
Position N 37°22' E 023°55'.

Length 143 m; draft 5.5 m.

Type: Passenger vessel. MMSI: 239297000.

Date/timePositionNaut miles runAvg speedWind from/ knotsBaromVisibWave heightAir tempDewpointWater temp
2016-Aug-26 17:28N 37°22' E 023°55'1516.8
2016-Aug-26 16:33N 37°35' E 023°46'1616.6
2016-Aug-26 15:33N 37°50' E 023°37'7 7.0
2016-Aug-26 14:33N 37°57' E 023°38'0 0.0
2016-Aug-26 13:33N 37°57' E 023°38'0 0.0
2016-Aug-26 12:33N 37°57' E 023°38'0 0.0
2016-Aug-26 11:33N 37°57' E 023°38'0 0.0
2016-Aug-26 10:33N 37°57' E 023°38'0 0.0
2016-Aug-26 09:33N 37°57' E 023°38'0 0.0
2016-Aug-26 08:33N 37°57' E 023°38'0 0.0
2016-Aug-26 07:33N 37°57' E 023°38'0 0.0
2016-Aug-26 06:33N 37°57' E 023°38'2110.3
2016-Aug-26 04:33N 37°38' E 023°50'1615.6
2016-Aug-26 03:32N 37°25' E 024°02'1615.5
2016-Aug-26 02:31N 37°13' E 024°13'  
2016-Aug-22 18:10N 37°10' E 024°18'1016.7
2016-Aug-22 17:33N 37°18' E 024°11'1717.0
2016-Aug-22 16:33N 37°30' E 023°56'1716.6
2016-Aug-22 15:34N 37°42' E 023°41'1514.8
2016-Aug-22 14:34N 37°56' E 023°38'1 0.5
2016-Aug-22 13:34N 37°57' E 023°38'0 0.0
2016-Aug-22 12:34N 37°57' E 023°38'0 0.0
2016-Aug-22 11:34N 37°57' E 023°38'1110.6
2016-Aug-22 10:33N 37°47' E 023°41'1717.0
2016-Aug-22 09:33N 37°31' E 023°51'1716.9
2016-Aug-22 08:33N 37°16' E 024°00'1716.7
2016-Aug-22 07:32N 37°01' E 024°11'18 8.4
2016-Aug-22 05:22N 36°46' E 024°24'  
2016-Aug-19 17:27N 37°23' E 023°55'1416.2
2016-Aug-19 16:34N 37°35' E 023°45'1716.5
2016-Aug-19 15:34N 37°50' E 023°37'7 6.8
2016-Aug-19 14:33N 37°57' E 023°38'0 0.0
2016-Aug-19 13:33N 37°57' E 023°38'0 0.0
2016-Aug-19 12:33N 37°57' E 023°38'0 0.0
2016-Aug-19 11:33N 37°57' E 023°38'0 0.0
2016-Aug-19 10:33N 37°57' E 023°38'0 0.0
2016-Aug-19 09:33N 37°57' E 023°38'0 0.0
2016-Aug-19 08:33N 37°57' E 023°38'0 0.0
2016-Aug-19 07:33N 37°57' E 023°38'0 0.0
2016-Aug-19 06:33N 37°57' E 023°38'1 0.9
2016-Aug-19 05:33N 37°56' E 023°37'1514.8
2016-Aug-19 04:33N 37°43' E 023°45'1616.4
2016-Aug-19 03:33N 37°31' E 023°59'1616.5
2016-Aug-19 02:33N 37°17' E 024°11'1716.9
2016-Aug-19 01:33N 37°04' E 024°25'2217.2
2016-Aug-19 00:15N 36°47' E 024°43'  
Track history (hours):
 
Tides and Currents Weather Stations Pressure Air Temp Water Temp Dewpoint Dewpoint Depression Visibility Wind Speed Wind Dir Waves Ship Positions

Prevelis

Last reported at 2016-Aug-26 17:28 UTC. Time now 2016-Aug-27 02:57 UTC.
Position N 37°22' E 023°55'.

Length 143 m; draft 5.5 m.

Type: Passenger vessel. MMSI: 239297000.

Date/timePositionNaut miles runAvg speedWind from/ knotsBaromVisibWave heightAir tempDewpointWater temp
2016-Aug-26 17:28N 37°22' E 023°55'1516.8
2016-Aug-26 16:33N 37°35' E 023°46'1616.6
2016-Aug-26 15:33N 37°50' E 023°37'7 7.0
2016-Aug-26 14:33N 37°57' E 023°38'0 0.0
2016-Aug-26 13:33N 37°57' E 023°38'0 0.0
2016-Aug-26 12:33N 37°57' E 023°38'0 0.0
2016-Aug-26 11:33N 37°57' E 023°38'0 0.0
2016-Aug-26 10:33N 37°57' E 023°38'0 0.0
2016-Aug-26 09:33N 37°57' E 023°38'0 0.0
2016-Aug-26 08:33N 37°57' E 023°38'0 0.0
2016-Aug-26 07:33N 37°57' E 023°38'0 0.0
2016-Aug-26 06:33N 37°57' E 023°38'2110.3
2016-Aug-26 04:33N 37°38' E 023°50'1615.6
2016-Aug-26 03:32N 37°25' E 024°02'1615.5
2016-Aug-26 02:31N 37°13' E 024°13'  
2016-Aug-22 18:10N 37°10' E 024°18'1016.7
2016-Aug-22 17:33N 37°18' E 024°11'1717.0
2016-Aug-22 16:33N 37°30' E 023°56'1716.6
2016-Aug-22 15:34N 37°42' E 023°41'1514.8
2016-Aug-22 14:34N 37°56' E 023°38'1 0.5
2016-Aug-22 13:34N 37°57' E 023°38'0 0.0
2016-Aug-22 12:34N 37°57' E 023°38'0 0.0
2016-Aug-22 11:34N 37°57' E 023°38'1110.6
2016-Aug-22 10:33N 37°47' E 023°41'1717.0
2016-Aug-22 09:33N 37°31' E 023°51'1716.9
2016-Aug-22 08:33N 37°16' E 024°00'1716.7
2016-Aug-22 07:32N 37°01' E 024°11'18 8.4
2016-Aug-22 05:22N 36°46' E 024°24'  
2016-Aug-19 17:27N 37°23' E 023°55'1416.2
2016-Aug-19 16:34N 37°35' E 023°45'1716.5
2016-Aug-19 15:34N 37°50' E 023°37'7 6.8
2016-Aug-19 14:33N 37°57' E 023°38'0 0.0
2016-Aug-19 13:33N 37°57' E 023°38'0 0.0
2016-Aug-19 12:33N 37°57' E 023°38'0 0.0
2016-Aug-19 11:33N 37°57' E 023°38'0 0.0
2016-Aug-19 10:33N 37°57' E 023°38'0 0.0
2016-Aug-19 09:33N 37°57' E 023°38'0 0.0
2016-Aug-19 08:33N 37°57' E 023°38'0 0.0
2016-Aug-19 07:33N 37°57' E 023°38'0 0.0
2016-Aug-19 06:33N 37°57' E 023°38'1 0.9
2016-Aug-19 05:33N 37°56' E 023°37'1514.8
2016-Aug-19 04:33N 37°43' E 023°45'1616.4
2016-Aug-19 03:33N 37°31' E 023°59'1616.5
2016-Aug-19 02:33N 37°17' E 024°11'1716.9
2016-Aug-19 01:33N 37°04' E 024°25'2217.2
2016-Aug-19 00:15N 36°47' E 024°43'  

Dump ship's entire track history